| time (UTC) | temp F | wind direction | speed MPH | gust MPH | rain 1hr in | rain 24hr in | rain mn in | humidity % | barometer mb |
| 20260509214029 | 58 | 131 | 8.0 | 16.0 | 0.00 | 0.04 | 0.04 | 31 | 1011.0 |
| 20260509213528 | 58 | 346 | 7.0 | 20.0 | 0.00 | 0.04 | 0.04 | 31 | 1010.9 |
| 20260509213047 | 58 | 344 | 8.0 | 20.0 | 0.00 | 0.04 | 0.04 | 31 | 1011.0 |
| 20260509212527 | 59 | 286 | 7.0 | 20.0 | 0.00 | 0.04 | 0.04 | 31 | 1011.0 |
| 20260509212028 | 58 | 17 | 8.0 | 18.0 | 0.00 | 0.04 | 0.04 | 31 | 1010.8 |
| 20260509211543 | 58 | 319 | 6.0 | 18.0 | 0.00 | 0.04 | 0.04 | 32 | 1010.9 |
| 20260509211028 | 58 | 333 | 7.0 | 18.0 | 0.00 | 0.04 | 0.04 | 32 | 1010.9 |
| 20260509210528 | 58 | 221 | 10.0 | 17.0 | 0.00 | 0.04 | 0.04 | 31 | 1010.8 |
| 20260509210037 | 58 | 11 | 7.0 | 17.0 | 0.00 | 0.04 | 0.04 | 32 | 1010.7 |
| 20260509205528 | 58 | 334 | 6.0 | 17.0 | 0.00 | 0.04 | 0.04 | 31 | 1010.7 |
| 20260509205030 | 58 | 306 | 9.0 | 19.0 | 0.00 | 0.04 | 0.04 | 31 | 1010.7 |
| 20260509204542 | 59 | 344 | 6.0 | 20.0 | 0.00 | 0.04 | 0.04 | 31 | 1010.7 |
| 20260509204028 | 58 | 341 | 9.0 | 20.0 | 0.00 | 0.04 | 0.04 | 30 | 1010.6 |
| 20260509203527 | 59 | 325 | 7.0 | 19.0 | 0.00 | 0.04 | 0.04 | 30 | 1010.7 |
| 20260509203103 | 58 | 51 | 5.0 | 19.0 | 0.00 | 0.04 | 0.04 | 32 | 1010.6 |
| 20260509202528 | 58 | 345 | 9.0 | 19.0 | 0.00 | 0.04 | 0.04 | 33 | 1010.7 |
| 20260509202031 | 58 | 303 | 9.0 | 19.0 | 0.00 | 0.04 | 0.04 | 32 | 1010.7 |
| 20260509201541 | 58 | 288 | 6.0 | 16.0 | 0.00 | 0.04 | 0.04 | 34 | 1010.6 |
| 20260509201028 | 58 | 305 | 8.0 | 17.0 | 0.00 | 0.04 | 0.04 | 32 | 1010.6 |
| 20260509200528 | 58 | 304 | 7.0 | 17.0 | 0.00 | 0.04 | 0.04 | 31 | 1010.6 |
| 20260509200047 | 58 | 17 | 9.0 | 17.0 | 0.00 | 0.04 | 0.04 | 31 | 1010.7 |
| 20260509195527 | 58 | 22 | 7.0 | 17.0 | 0.00 | 0.04 | 0.04 | 32 | 1010.5 |
| 20260509195030 | 58 | 44 | 5.0 | 15.0 | 0.00 | 0.04 | 0.04 | 34 | 1010.5 |
| 20260509194536 | 57 | 9 | 8.0 | 15.0 | 0.00 | 0.04 | 0.04 | 33 | 1010.5 |
| 20260509194028 | 57 | 342 | 4.0 | 16.0 | 0.00 | 0.04 | 0.04 | 35 | 1010.4 |
| 20260509193528 | 57 | 69 | 6.0 | 16.0 | 0.00 | 0.04 | 0.04 | 33 | 1010.4 |
| 20260509193046 | 58 | 5 | 5.0 | 15.0 | 0.00 | 0.04 | 0.04 | 34 | 1010.5 |
| 20260509192527 | 57 | 288 | 5.0 | 16.0 | 0.00 | 0.04 | 0.04 | 33 | 1010.2 |
| 20260509192027 | 57 | 42 | 7.0 | 16.0 | 0.00 | 0.04 | 0.04 | 33 | 1010.4 |
| 20260509191554 | 57 | 335 | 7.0 | 19.0 | 0.00 | 0.04 | 0.04 | 33 | 1010.4 |
| 20260509191030 | 56 | 319 | 5.0 | 19.0 | 0.00 | 0.04 | 0.04 | 35 | 1010.2 |
| 20260509190527 | 56 | 279 | 11.0 | 19.0 | 0.00 | 0.04 | 0.04 | 35 | 1010.3 |
| 20260509190041 | 56 | 30 | 9.0 | 18.0 | 0.00 | 0.04 | 0.04 | 35 | 1010.1 |
| 20260509185528 | 57 | 323 | 8.0 | 17.0 | 0.00 | 0.04 | 0.04 | 33 | 1010.2 |
| 20260509185031 | 56 | 302 | 8.0 | 17.0 | 0.00 | 0.04 | 0.04 | 35 | 1010.0 |
| 20260509184538 | 56 | 340 | 10.0 | 17.0 | 0.00 | 0.04 | 0.04 | 35 | 1010.0 |
| 20260509184028 | 56 | 277 | 8.0 | 16.0 | 0.00 | 0.04 | 0.04 | 35 | 1010.0 |
| 20260509183528 | 56 | 324 | 7.0 | 17.0 | 0.00 | 0.04 | 0.04 | 36 | 1009.8 |
| 20260509183036 | 56 | 300 | 6.0 | 17.0 | 0.00 | 0.04 | 0.04 | 37 | 1010.0 |
| 20260509182527 | 56 | 346 | 8.0 | 17.0 | 0.00 | 0.04 | 0.04 | 35 | 1010.0 |
| 20260509182027 | 56 | 281 | 8.0 | 16.0 | 0.00 | 0.04 | 0.04 | 34 | 1009.9 |
| 20260509181543 | 56 | 25 | 6.0 | 21.0 | 0.00 | 0.04 | 0.04 | 37 | 1009.9 |
| 20260509181028 | 55 | 68 | 7.0 | 21.0 | 0.00 | 0.04 | 0.04 | 36 | 1009.9 |
| 20260509180527 | 55 | 48 | 10.0 | 21.0 | 0.00 | 0.04 | 0.04 | 36 | 1010.0 |
| 20260509180042 | 56 | 329 | 8.0 | 16.0 | 0.00 | 0.04 | 0.04 | 35 | 1009.8 |
| 20260509175527 | 56 | 5 | 6.0 | 14.0 | 0.00 | 0.04 | 0.04 | 38 | 1009.8 |
| 20260509175028 | 55 | 21 | 7.0 | 17.0 | 0.00 | 0.04 | 0.04 | 37 | 1009.8 |
| 20260509174541 | 55 | 288 | 7.0 | 17.0 | 0.00 | 0.04 | 0.04 | 37 | 1009.9 |
| 20260509174032 | 54 | 313 | 6.0 | 15.0 | 0.00 | 0.04 | 0.04 | 36 | 1009.7 |
| 20260509173529 | 55 | 319 | 6.0 | 15.0 | 0.00 | 0.04 | 0.04 | 37 | 1009.6 |
| 20260509173038 | 54 | 295 | 9.0 | 19.0 | 0.00 | 0.04 | 0.04 | 37 | 1009.7 |
| 20260509172528 | 54 | 22 | 8.0 | 19.0 | 0.00 | 0.04 | 0.04 | 38 | 1009.5 |
| 20260509172028 | 54 | 360 | 6.0 | 19.0 | 0.00 | 0.04 | 0.04 | 39 | 1009.7 |
| 20260509171537 | 54 | 348 | 7.0 | 15.0 | 0.00 | 0.04 | 0.04 | 39 | 1009.7 |
| 20260509171028 | 54 | 266 | 6.0 | 14.0 | 0.00 | 0.04 | 0.04 | 39 | 1009.6 |
| 20260509170528 | 54 | 271 | 7.0 | 18.0 | 0.00 | 0.04 | 0.04 | 39 | 1009.7 |
| 20260509170046 | 54 | 292 | 9.0 | 18.0 | 0.00 | 0.04 | 0.04 | 39 | 1009.6 |
| 20260509165527 | 54 | 360 | 5.0 | 13.0 | 0.00 | 0.04 | 0.04 | 42 | 1009.5 |
| 20260509165027 | 54 | 334 | 5.0 | 18.0 | 0.00 | 0.04 | 0.04 | 41 | 1009.5 |
| 20260509164545 | 53 | 335 | 6.0 | 18.0 | 0.00 | 0.04 | 0.04 | 42 | 1009.4 |
| 20260509164027 | 53 | 43 | 8.0 | 18.0 | 0.00 | 0.04 | 0.04 | 40 | 1009.3 |
| 20260509163531 | 53 | 302 | 7.0 | 18.0 | 0.00 | 0.04 | 0.04 | 42 | 1009.3 |
| 20260509163040 | 53 | 308 | 8.0 | 19.0 | 0.00 | 0.04 | 0.04 | 42 | 1009.3 |
| 20260509162527 | 53 | 275 | 7.0 | 19.0 | 0.00 | 0.04 | 0.04 | 42 | 1009.2 |
| 20260509162027 | 52 | 317 | 6.0 | 18.0 | 0.00 | 0.04 | 0.04 | 43 | 1009.1 |
| 20260509161538 | 52 | 323 | 9.0 | 18.0 | 0.00 | 0.04 | 0.04 | 43 | 1009.0 |
| 20260509161027 | 52 | 40 | 10.0 | 18.0 | 0.00 | 0.04 | 0.04 | 42 | 1009.1 |
| 20260509160529 | 52 | 309 | 9.0 | 18.0 | 0.00 | 0.04 | 0.04 | 44 | 1008.9 |
| 20260509160044 | 52 | 343 | 9.0 | 19.0 | 0.00 | 0.04 | 0.04 | 43 | 1008.9 |
| 20260509155527 | 52 | 349 | 7.0 | 19.0 | 0.00 | 0.04 | 0.04 | 44 | 1008.8 |
| 20260509155027 | 52 | 310 | 7.0 | 15.0 | 0.00 | 0.04 | 0.04 | 46 | 1008.7 |
| 20260509154541 | 51 | 360 | 7.0 | 16.0 | 0.00 | 0.04 | 0.04 | 47 | 1008.6 |
| 20260509154028 | 51 | 309 | 8.0 | 18.0 | 0.00 | 0.04 | 0.04 | 48 | 1008.6 |
| 20260509153527 | 51 | 275 | 8.0 | 18.0 | 0.00 | 0.04 | 0.04 | 49 | 1008.5 |
| 20260509153044 | 51 | 310 | 10.0 | 18.0 | 0.00 | 0.04 | 0.04 | 48 | 1008.5 |
| 20260509152527 | 51 | 338 | 5.0 | 16.0 | 0.00 | 0.04 | 0.04 | 50 | 1008.3 |
| 20260509152028 | 51 | 304 | 7.0 | 16.0 | 0.00 | 0.04 | 0.04 | 50 | 1008.3 |
| 20260509151539 | 50 | 14 | 7.0 | 17.0 | 0.00 | 0.04 | 0.04 | 50 | 1008.1 |
| 20260509151027 | 50 | 293 | 8.0 | 18.0 | 0.00 | 0.04 | 0.04 | 51 | 1008.0 |
| 20260509150528 | 50 | 344 | 8.0 | 20.0 | 0.00 | 0.04 | 0.04 | 51 | 1008.0 |
| 20260509150040 | 50 | 5 | 7.0 | 20.0 | 0.00 | 0.04 | 0.04 | 51 | 1008.1 |
| 20260509145528 | 50 | 350 | 7.0 | 16.0 | 0.00 | 0.04 | 0.04 | 52 | 1007.9 |
| 20260509145027 | 50 | 286 | 8.0 | 16.0 | 0.00 | 0.04 | 0.04 | 53 | 1007.8 |
| 20260509144544 | 50 | 17 | 7.0 | 15.0 | 0.00 | 0.04 | 0.04 | 55 | 1007.6 |
| 20260509144025 | 49 | 321 | 5.0 | 15.0 | 0.00 | 0.04 | 0.04 | 56 | 1007.7 |
| 20260509143528 | 49 | 360 | 6.0 | 16.0 | 0.00 | 0.04 | 0.04 | 57 | 1007.7 |
| 20260509143044 | 49 | 319 | 7.0 | 16.0 | 0.00 | 0.04 | 0.04 | 56 | 1007.7 |
| 20260509142530 | 49 | 319 | 4.0 | 13.0 | 0.00 | 0.04 | 0.04 | 60 | 1007.6 |
| 20260509142028 | 49 | 360 | 6.0 | 16.0 | 0.00 | 0.04 | 0.04 | 60 | 1007.5 |
| 20260509141542 | 48 | 9 | 6.0 | 16.0 | 0.00 | 0.04 | 0.04 | 61 | 1007.5 |
| 20260509141027 | 48 | 298 | 6.0 | 16.0 | 0.00 | 0.04 | 0.04 | 63 | 1007.4 |
| 20260509140527 | 48 | 311 | 8.0 | 17.0 | 0.00 | 0.04 | 0.04 | 63 | 1007.4 |
| 20260509140039 | 48 | 48 | 7.0 | 17.0 | 0.00 | 0.04 | 0.04 | 63 | 1007.3 |
| 20260509135527 | 48 | 311 | 6.0 | 15.0 | 0.00 | 0.04 | 0.04 | 64 | 1007.1 |
| 20260509135028 | 48 | 326 | 4.0 | 14.0 | 0.00 | 0.04 | 0.04 | 64 | 1007.0 |
| 20260509134537 | 48 | 322 | 5.0 | 14.0 | 0.00 | 0.04 | 0.04 | 65 | 1007.0 |
| 20260509134027 | 48 | 338 | 5.0 | 14.0 | 0.00 | 0.04 | 0.04 | 65 | 1006.8 |
| 20260509133527 | 47 | 320 | 5.0 | 12.0 | 0.00 | 0.04 | 0.04 | 66 | 1006.8 |
| 20260509133039 | 47 | 302 | 5.0 | 12.0 | 0.00 | 0.04 | 0.04 | 68 | 1006.7 |
| 20260509132527 | 47 | 337 | 5.0 | 15.0 | 0.00 | 0.04 | 0.04 | 69 | 1006.7 |
| 20260509132026 | 47 | 317 | 5.0 | 15.0 | 0.00 | 0.04 | 0.04 | 70 | 1006.6 |
| 20260509131548 | 47 | 323 | 7.0 | 16.0 | 0.00 | 0.04 | 0.04 | 70 | 1006.6 |
| 20260509131027 | 47 | 26 | 6.0 | 16.0 | 0.00 | 0.04 | 0.04 | 72 | 1006.5 |
| 20260509130529 | 46 | 274 | 6.0 | 12.0 | 0.00 | 0.04 | 0.04 | 72 | 1006.4 |
| 20260509130055 | 46 | 273 | 7.0 | 12.0 | 0.00 | 0.04 | 0.04 | 73 | 1006.4 |
| 20260509125530 | 46 | 289 | 6.0 | 13.0 | 0.00 | 0.04 | 0.04 | 73 | 1006.2 |
| 20260509125028 | 46 | 291 | 5.0 | 16.0 | 0.00 | 0.04 | 0.04 | 75 | 1006.2 |
| 20260509124542 | 46 | 24 | 7.0 | 16.0 | 0.00 | 0.04 | 0.04 | 76 | 1006.1 |
| 20260509124027 | 46 | 18 | 6.0 | 15.0 | 0.00 | 0.04 | 0.04 | 77 | 1006.1 |
| 20260509123527 | 45 | 316 | 4.0 | 12.0 | 0.00 | 0.04 | 0.04 | 78 | 1006.0 |
| 20260509123039 | 45 | 5 | 4.0 | 12.0 | 0.00 | 0.04 | 0.04 | 79 | 1005.8 |
| 20260509122527 | 45 | 25 | 5.0 | 12.0 | 0.00 | 0.04 | 0.04 | 80 | 1005.9 |
| 20260509122027 | 45 | 326 | 4.0 | 12.0 | 0.00 | 0.04 | 0.04 | 81 | 1005.7 |
| 20260509121537 | 44 | 292 | 6.0 | 12.0 | 0.00 | 0.04 | 0.04 | 82 | 1005.7 |
| 20260509121027 | 44 | 320 | 4.0 | 11.0 | 0.00 | 0.04 | 0.04 | 83 | 1005.7 |
| 20260509120529 | 45 | 320 | 4.0 | 10.0 | 0.00 | 0.04 | 0.04 | 84 | 1005.5 |
| 20260509120036 | 45 | 302 | 4.0 | 10.0 | 0.00 | 0.04 | 0.04 | 85 | 1005.5 |
| 20260509115527 | 45 | 267 | 3.0 | 9.0 | 0.00 | 0.04 | 0.04 | 85 | 1005.4 |
| 20260509115031 | 44 | 331 | 2.0 | 8.0 | 0.00 | 0.04 | 0.04 | 85 | 1005.2 |
| 20260509114542 | 44 | 327 | 2.0 | 9.0 | 0.00 | 0.04 | 0.04 | 85 | 1005.2 |
| 20260509114029 | 44 | 294 | 3.0 | 9.0 | 0.00 | 0.04 | 0.04 | 85 | 1005.1 |
| 20260509113528 | 45 | 298 | 4.0 | 10.0 | 0.00 | 0.04 | 0.04 | 85 | 1004.9 |
| 20260509113042 | 45 | 302 | 3.0 | 10.0 | 0.00 | 0.04 | 0.04 | 85 | 1004.9 |
| 20260509112527 | 45 | 308 | 3.0 | 10.0 | 0.00 | 0.04 | 0.04 | 85 | 1004.7 |
| 20260509112028 | 45 | 360 | 3.0 | 10.0 | 0.00 | 0.04 | 0.04 | 85 | 1004.7 |
| 20260509111541 | 45 | 324 | 4.0 | 11.0 | 0.00 | 0.04 | 0.04 | 85 | 1004.6 |
| 20260509111027 | 46 | 343 | 3.0 | 12.0 | 0.00 | 0.04 | 0.04 | 84 | 1004.5 |
| 20260509110528 | 46 | 352 | 5.0 | 12.0 | 0.00 | 0.04 | 0.04 | 84 | 1004.5 |
| 20260509110038 | 46 | 316 | 6.0 | 13.0 | 0.00 | 0.04 | 0.04 | 84 | 1004.3 |
| 20260509105528 | 46 | 360 | 6.0 | 13.0 | 0.00 | 0.04 | 0.04 | 84 | 1004.3 |
| 20260509105028 | 46 | 329 | 7.0 | 15.0 | 0.00 | 0.04 | 0.04 | 84 | 1004.2 |
| 20260509104543 | 46 | 315 | 6.0 | 15.0 | 0.00 | 0.04 | 0.04 | 84 | 1004.1 |
| 20260509104027 | 47 | 322 | 5.0 | 13.0 | 0.00 | 0.04 | 0.04 | 84 | 1004.0 |
| 20260509103527 | 47 | 321 | 5.0 | 11.0 | 0.00 | 0.04 | 0.04 | 84 | 1003.8 |
| 20260509103043 | 47 | 340 | 5.0 | 11.0 | 0.00 | 0.04 | 0.04 | 84 | 1003.7 |
| 20260509102527 | 47 | 5 | 4.0 | 11.0 | 0.00 | 0.04 | 0.04 | 84 | 1003.6 |
| 20260509102028 | 47 | 334 | 3.0 | 11.0 | 0.00 | 0.04 | 0.04 | 85 | 1003.4 |
| 20260509101541 | 47 | 327 | 5.0 | 11.0 | 0.01 | 0.04 | 0.04 | 85 | 1003.4 |
| 20260509101027 | 47 | 343 | 4.0 | 11.0 | 0.01 | 0.04 | 0.04 | 86 | 1003.4 |
| 20260509100527 | 47 | 326 | 5.0 | 11.0 | 0.01 | 0.04 | 0.04 | 86 | 1003.3 |
| 20260509100041 | 47 | 340 | 4.0 | 10.0 | 0.01 | 0.04 | 0.04 | 87 | 1003.3 |
| 20260509095528 | 47 | 269 | 3.0 | 8.0 | 0.01 | 0.04 | 0.04 | 87 | 1003.3 |
| 20260509095027 | 47 | 347 | 2.0 | 4.0 | 0.01 | 0.04 | 0.04 | 87 | 1003.3 |
| 20260509094538 | 47 | 352 | 2.0 | 4.0 | 0.01 | 0.04 | 0.04 | 87 | 1003.2 |
| 20260509094028 | 47 | 347 | 1.0 | 4.0 | 0.01 | 0.04 | 0.04 | 87 | 1003.2 |
| 20260509093528 | 47 | 333 | 1.0 | 4.0 | 0.01 | 0.04 | 0.04 | 86 | 1003.2 |
| 20260509093043 | 47 | 324 | 2.0 | 4.0 | 0.02 | 0.04 | 0.04 | 86 | 1003.1 |
| 20260509092527 | 47 | 317 | 1.0 | 3.0 | 0.02 | 0.04 | 0.04 | 87 | 1003.0 |
| 20260509092027 | 47 | 332 | 1.0 | 3.0 | 0.02 | 0.04 | 0.04 | 87 | 1002.9 |
| 20260509091541 | 47 | 0 | 0.0 | 4.0 | 0.01 | 0.03 | 0.03 | 87 | 1002.6 |
| 20260509091030 | 47 | 254 | 1.0 | 4.0 | 0.01 | 0.03 | 0.03 | 87 | 1002.8 |
| 20260509090528 | 47 | 0 | 1.0 | 3.0 | 0.02 | 0.03 | 0.03 | 86 | 1002.7 |
| 20260509090046 | 47 | 0 | 0.0 | 2.0 | 0.03 | 0.03 | 0.03 | 86 | 1002.5 |
| 20260509085527 | 47 | 215 | 0.0 | 2.0 | 0.03 | 0.03 | 0.03 | 86 | 1002.6 |
| 20260509085027 | 47 | 0 | 0.0 | 3.0 | 0.03 | 0.03 | 0.03 | 86 | 1002.6 |
| 20260509084539 | 47 | 0 | 0.0 | 3.0 | 0.03 | 0.03 | 0.03 | 85 | 1002.7 |
| 20260509084028 | 47 | 0 | 0.0 | 3.0 | 0.03 | 0.03 | 0.03 | 85 | 1002.6 |
| 20260509083528 | 47 | 270 | 1.0 | 3.0 | 0.03 | 0.03 | 0.03 | 85 | 1002.8 |
| 20260509083041 | 47 | 306 | 0.0 | 3.0 | 0.02 | 0.02 | 0.02 | 84 | 1002.8 |
| 20260509082527 | 47 | 0 | 0.0 | 8.0 | 0.02 | 0.02 | 0.02 | 84 | 1002.9 |
| 20260509082028 | 47 | 300 | 2.0 | 15.0 | 0.02 | 0.02 | 0.02 | 83 | 1003.0 |
| 20260509081549 | 47 | 306 | 3.0 | 15.0 | 0.02 | 0.02 | 0.02 | 83 | 1003.2 |
| 20260509081026 | 48 | 326 | 4.0 | 10.0 | 0.02 | 0.02 | 0.02 | 83 | 1003.0 |
| 20260509080527 | 48 | 307 | 1.0 | 5.0 | 0.01 | 0.01 | 0.01 | 82 | 1003.0 |
| 20260509080042 | 48 | 319 | 2.0 | 5.0 | 0.00 | 0.00 | 0.00 | 82 | 1002.9 |
| 20260509075527 | 48 | 325 | 1.0 | 7.0 | 0.00 | 0.00 | 0.00 | 81 | 1002.9 |
| 20260509075030 | 48 | 24 | 2.0 | 9.0 | 0.00 | 0.00 | 0.00 | 80 | 1002.9 |
| 20260509074538 | 48 | 0 | 3.0 | 9.0 | 0.00 | 0.00 | 0.00 | 80 | 1003.2 |
| 20260509074027 | 49 | 323 | 4.0 | 9.0 | 0.00 | 0.00 | 0.00 | 79 | 1003.2 |
| 20260509073527 | 49 | 332 | 3.0 | 13.0 | 0.00 | 0.00 | 0.00 | 77 | 1003.1 |
| 20260509073039 | 50 | 348 | 5.0 | 14.0 | 0.00 | 0.00 | 0.00 | 76 | 1002.9 |
| 20260509072528 | 50 | 26 | 7.0 | 14.0 | 0.00 | 0.00 | 0.00 | 74 | 1003.0 |
| 20260509072027 | 50 | 346 | 4.0 | 12.0 | 0.00 | 0.00 | 0.00 | 73 | 1003.1 |
| 20260509071538 | 51 | 352 | 4.0 | 13.0 | 0.00 | 0.00 | 0.00 | 72 | 1003.1 |
| 20260509071027 | 51 | 301 | 6.0 | 18.0 | 0.00 | 0.00 | 0.00 | 71 | 1003.0 |
| 20260509070527 | 52 | 340 | 6.0 | 18.0 | 0.00 | 0.00 | 0.00 | 70 | 1002.8 |
| 20260509070043 | 52 | 343 | 6.0 | 18.0 | 0.00 | 0.00 | 0.00 | 69 | 1003.0 |
| 20260509065526 | 52 | 317 | 6.0 | 13.0 | 0.00 | 0.00 | 0.00 | 68 | 1003.1 |
| 20260509065028 | 53 | 304 | 6.0 | 17.0 | 0.00 | 0.00 | 0.00 | 66 | 1003.0 |
| 20260509064549 | 53 | 213 | 8.0 | 17.0 | 0.00 | 0.00 | 0.00 | 64 | 1003.1 |
| 20260509064027 | 53 | 343 | 4.0 | 17.0 | 0.00 | 0.00 | 0.00 | 62 | 1003.1 |
| 20260509063527 | 53 | 5 | 5.0 | 17.0 | 0.00 | 0.00 | 0.00 | 60 | 1003.2 |
| 20260509063042 | 53 | 310 | 6.0 | 15.0 | 0.00 | 0.00 | 0.00 | 55 | 1003.2 |
| 20260509062529 | 53 | 333 | 4.0 | 12.0 | 0.00 | 0.00 | 0.00 | 51 | 1003.2 |
| 20260509062027 | 52 | 13 | 4.0 | 11.0 | 0.00 | 0.00 | 0.00 | 49 | 1003.3 |
| 20260509061541 | 52 | 327 | 5.0 | 11.0 | 0.00 | 0.00 | 0.00 | 48 | 1003.3 |
| 20260509061027 | 51 | 325 | 5.0 | 10.0 | 0.00 | 0.00 | 0.00 | 47 | 1003.3 |
| 20260509060527 | 51 | 350 | 2.0 | 8.0 | 0.00 | 0.00 | 0.00 | 49 | 1003.2 |
| 20260509060037 | 52 | 13 | 1.0 | 3.0 | 0.00 | 0.00 | 0.00 | 49 | 1002.9 |
| 20260509055527 | 52 | 9 | 1.0 | 3.0 | 0.00 | 0.00 | 0.00 | 46 | 1002.6 |
| 20260509055027 | 52 | 313 | 0.0 | 2.0 | 0.00 | 0.00 | 0.00 | 45 | 1002.5 |
| 20260509054548 | 52 | 0 | 0.0 | 3.0 | 0.00 | 0.00 | 0.00 | 45 | 1002.4 |
| 20260509054027 | 52 | 0 | 0.0 | 4.0 | 0.00 | 0.00 | 0.00 | 46 | 1002.4 |
| 20260509053527 | 52 | 238 | 2.0 | 5.0 | 0.00 | 0.00 | 0.00 | 45 | 1002.4 |
| 20260509053041 | 52 | 227 | 1.0 | 5.0 | 0.00 | 0.00 | 0.00 | 45 | 1002.2 |
| 20260509052529 | 51 | 249 | 2.0 | 5.0 | 0.00 | 0.00 | 0.00 | 45 | 1002.2 |
| 20260509052027 | 51 | 196 | 1.0 | 3.0 | 0.00 | 0.00 | 0.00 | 47 | 1002.1 |
| 20260509051541 | 51 | 211 | 1.0 | 3.0 | 0.00 | 0.00 | 0.00 | 49 | 1002.2 |
| 20260509051026 | 51 | 181 | 0.0 | 5.0 | 0.00 | 0.00 | 0.00 | 53 | 1002.1 |
| 20260509050527 | 50 | 188 | 0.0 | 5.0 | 0.00 | 0.00 | 0.00 | 55 | 1002.0 |
| 20260509050058 | 50 | 159 | 0.0 | 2.0 | 0.00 | 0.00 | 0.00 | 53 | 1001.9 |
| 20260509045527 | 50 | 194 | 0.0 | 3.0 | 0.00 | 0.00 | 0.00 | 55 | 1002.1 |
| 20260509045027 | 50 | 0 | 0.0 | 3.0 | 0.00 | 0.00 | 0.00 | 53 | 1002.3 |
| 20260509044551 | 50 | 192 | 0.0 | 3.0 | 0.00 | 0.00 | 0.00 | 54 | 1002.1 |
| 20260509044024 | 50 | 0 | 1.0 | 4.0 | 0.00 | 0.00 | 0.00 | 58 | 1002.3 |
| 20260509043526 | 50 | 169 | 1.0 | 4.0 | 0.00 | 0.00 | 0.00 | 60 | 1002.4 |
| 20260509043036 | 50 | 190 | 1.0 | 4.0 | 0.00 | 0.00 | 0.00 | 57 | 1002.5 |
| 20260509042527 | 50 | 175 | 1.0 | 3.0 | 0.00 | 0.00 | 0.00 | 52 | 1002.6 |
| 20260509042029 | 51 | 185 | 1.0 | 3.0 | 0.00 | 0.00 | 0.00 | 52 | 1002.5 |
| 20260509041542 | 51 | 193 | 1.0 | 2.0 | 0.00 | 0.00 | 0.00 | 57 | 1002.5 |
| 20260509041028 | 51 | 189 | 0.0 | 2.0 | 0.00 | 0.00 | 0.00 | 58 | 1002.4 |
| 20260509040527 | 51 | 0 | 1.0 | 2.0 | 0.00 | 0.00 | 0.00 | 57 | 1002.4 |
| 20260509040043 | 51 | 0 | 0.0 | 2.0 | 0.00 | 0.00 | 0.00 | 55 | 1002.8 |
| 20260509035527 | 51 | 209 | 0.0 | 2.0 | 0.00 | 0.00 | 0.00 | 49 | 1002.8 |
| 20260509035028 | 52 | 0 | 0.0 | 2.0 | 0.00 | 0.00 | 0.00 | 44 | 1002.9 |
| 20260509034542 | 53 | 240 | 0.0 | 1.0 | 0.00 | 0.00 | 0.00 | 43 | 1003.1 |
| 20260509034027 | 53 | 0 | 0.0 | 1.0 | 0.00 | 0.00 | 0.00 | 42 | 1003.1 |
| 20260509033527 | 53 | 0 | 0.0 | 1.0 | 0.00 | 0.00 | 0.00 | 41 | 1003.0 |
| 20260509033040 | 54 | 0 | 0.0 | 2.0 | 0.00 | 0.00 | 0.00 | 41 | 1003.1 |
| 20260509032527 | 55 | 0 | 0.0 | 2.0 | 0.00 | 0.00 | 0.00 | 38 | 1003.0 |
| 20260509032026 | 55 | 0 | 0.0 | 2.0 | 0.00 | 0.00 | 0.00 | 36 | 1003.1 |
| 20260509031548 | 56 | 242 | 0.0 | 2.0 | 0.00 | 0.00 | 0.00 | 35 | 1003.2 |
| 20260509031027 | 56 | 0 | 1.0 | 2.0 | 0.00 | 0.00 | 0.00 | 34 | 1003.2 |
| 20260509030527 | 56 | 273 | 1.0 | 2.0 | 0.00 | 0.00 | 0.00 | 34 | 1003.2 |
| 20260509030043 | 57 | 0 | 0.0 | 3.0 | 0.00 | 0.00 | 0.00 | 34 | 1003.1 |
| 20260509025527 | 57 | 293 | 1.0 | 3.0 | 0.00 | 0.00 | 0.00 | 33 | 1003.2 |
| 20260509025028 | 57 | 286 | 0.0 | 3.0 | 0.00 | 0.00 | 0.00 | 33 | 1003.2 |
| 20260509024539 | 57 | 0 | 1.0 | 4.0 | 0.00 | 0.00 | 0.00 | 33 | 1003.3 |
| 20260509024027 | 57 | 320 | 1.0 | 4.0 | 0.00 | 0.00 | 0.00 | 33 | 1003.3 |
| 20260509023534 | 57 | 290 | 1.0 | 4.0 | 0.00 | 0.00 | 0.00 | 32 | 1003.2 |
| 20260509023039 | 57 | 0 | 1.0 | 4.0 | 0.00 | 0.00 | 0.00 | 32 | 1003.2 |
| 20260509022527 | 58 | 325 | 1.0 | 4.0 | 0.00 | 0.00 | 0.00 | 32 | 1003.2 |
| 20260509022028 | 58 | 329 | 2.0 | 4.0 | 0.00 | 0.00 | 0.00 | 32 | 1003.1 |
| 20260509021536 | 58 | 296 | 1.0 | 8.0 | 0.00 | 0.00 | 0.00 | 31 | 1003.1 |
| 20260509021026 | 58 | 331 | 2.0 | 8.0 | 0.00 | 0.00 | 0.00 | 31 | 1003.1 |
| 20260509020528 | 58 | 329 | 2.0 | 9.0 | 0.00 | 0.00 | 0.00 | 31 | 1003.1 |
| 20260509020042 | 59 | 314 | 3.0 | 9.0 | 0.00 | 0.00 | 0.00 | 30 | 1003.1 |
| 20260509015527 | 59 | 333 | 4.0 | 10.0 | 0.00 | 0.00 | 0.00 | 30 | 1003.1 |
| 20260509015026 | 59 | 320 | 4.0 | 10.0 | 0.00 | 0.00 | 0.00 | 29 | 1003.0 |
| 20260509014544 | 59 | 334 | 3.0 | 11.0 | 0.00 | 0.00 | 0.00 | 29 | 1003.1 |
| 20260509014026 | 60 | 39 | 4.0 | 12.0 | 0.00 | 0.00 | 0.00 | 29 | 1003.1 |
| 20260509013526 | 60 | 284 | 4.0 | 13.0 | 0.00 | 0.00 | 0.00 | 29 | 1003.1 |
| 20260509013046 | 60 | 327 | 6.0 | 13.0 | 0.00 | 0.00 | 0.00 | 29 | 1003.0 |
| 20260509012526 | 60 | 287 | 5.0 | 13.0 | 0.00 | 0.00 | 0.00 | 29 | 1003.0 |
| 20260509012027 | 61 | 342 | 4.0 | 17.0 | 0.00 | 0.00 | 0.00 | 29 | 1002.8 |
| 20260509011538 | 61 | 290 | 6.0 | 17.0 | 0.00 | 0.00 | 0.00 | 29 | 1002.9 |
| 20260509011027 | 61 | 297 | 6.0 | 16.0 | 0.00 | 0.00 | 0.00 | 28 | 1002.9 |
| 20260509010527 | 62 | 283 | 8.0 | 16.0 | 0.00 | 0.00 | 0.00 | 28 | 1002.9 |
| 20260509010036 | 62 | 290 | 9.0 | 16.0 | 0.00 | 0.00 | 0.00 | 29 | 1002.7 |
| 20260509005527 | 63 | 297 | 7.0 | 16.0 | 0.00 | 0.00 | 0.00 | 29 | 1002.7 |
| 20260509005026 | 63 | 349 | 8.0 | 17.0 | 0.00 | 0.00 | 0.00 | 29 | 1002.7 |
| 20260509004542 | 64 | 280 | 7.0 | 17.0 | 0.00 | 0.00 | 0.00 | 29 | 1002.6 |
| 20260509004028 | 64 | 335 | 9.0 | 19.0 | 0.00 | 0.00 | 0.00 | 28 | 1002.5 |
| 20260509003527 | 64 | 314 | 9.0 | 19.0 | 0.00 | 0.00 | 0.00 | 28 | 1002.4 |
| 20260509003055 | 65 | 293 | 10.0 | 19.0 | 0.00 | 0.00 | 0.00 | 28 | 1002.4 |
| 20260509002526 | 65 | 317 | 8.0 | 17.0 | 0.00 | 0.00 | 0.00 | 28 | 1002.2 |
| 20260509002026 | 65 | 333 | 10.0 | 17.0 | 0.00 | 0.00 | 0.00 | 27 | 1002.2 |
| 20260509001540 | 66 | 307 | 11.0 | 18.0 | 0.00 | 0.00 | 0.00 | 27 | 1002.2 |
| 20260509001027 | 66 | 314 | 9.0 | 18.0 | 0.00 | 0.00 | 0.00 | 27 | 1002.1 |
| 20260509000528 | 66 | 302 | 10.0 | 21.0 | 0.00 | 0.00 | 0.00 | 26 | 1002.0 |
| 20260509000043 | 67 | 265 | 10.0 | 21.0 | 0.00 | 0.00 | 0.00 | 26 | 1002.1 |
| 20260508235528 | 67 | 329 | 10.0 | 20.0 | 0.00 | 0.00 | 0.00 | 26 | 1002.0 |
| 20260508235027 | 67 | 352 | 11.0 | 23.0 | 0.00 | 0.00 | 0.00 | 26 | 1001.9 |
| 20260508234543 | 67 | 266 | 8.0 | 27.0 | 0.00 | 0.00 | 0.00 | 26 | 1001.8 |
| 20260508234028 | 68 | 315 | 10.0 | 27.0 | 0.00 | 0.00 | 0.00 | 26 | 1001.7 |
| 20260508233527 | 68 | 326 | 8.0 | 19.0 | 0.00 | 0.00 | 0.00 | 25 | 1001.7 |
| 20260508233039 | 68 | 294 | 10.0 | 20.0 | 0.00 | 0.00 | 0.00 | 25 | 1001.7 |
| 20260508232526 | 68 | 32 | 10.0 | 22.0 | 0.00 | 0.00 | 0.00 | 24 | 1001.6 |
| 20260508232026 | 68 | 5 | 10.0 | 22.0 | 0.00 | 0.00 | 0.00 | 23 | 1001.7 |
| 20260508231540 | 69 | 318 | 8.0 | 21.0 | 0.00 | 0.00 | 0.00 | 24 | 1001.8 |
| 20260508231029 | 69 | 280 | 9.0 | 21.0 | 0.00 | 0.00 | 0.00 | 22 | 1001.6 |
| 20260508230528 | 69 | 339 | 6.0 | 16.0 | 0.00 | 0.00 | 0.00 | 22 | 1001.7 |
| 20260508230043 | 69 | 296 | 7.0 | 23.0 | 0.00 | 0.00 | 0.00 | 22 | 1001.6 |
| 20260508225527 | 69 | 299 | 10.0 | 23.0 | 0.00 | 0.00 | 0.00 | 21 | 1001.6 |
| 20260508225029 | 70 | 292 | 6.0 | 22.0 | 0.00 | 0.00 | 0.00 | 22 | 1001.6 |
| 20260508224539 | 69 | 317 | 7.0 | 25.0 | 0.00 | 0.00 | 0.00 | 22 | 1001.6 |
| 20260508224030 | 70 | 282 | 13.0 | 25.0 | 0.00 | 0.00 | 0.00 | 21 | 1001.7 |
| 20260508223529 | 70 | 260 | 6.0 | 19.0 | 0.00 | 0.00 | 0.00 | 22 | 1001.6 |
| 20260508223043 | 69 | 299 | 9.0 | 21.0 | 0.00 | 0.00 | 0.00 | 21 | 1001.6 |
| 20260508222528 | 70 | 279 | 11.0 | 21.0 | 0.00 | 0.00 | 0.00 | 21 | 1001.6 |
| 20260508222031 | 70 | 283 | 8.0 | 17.0 | 0.00 | 0.00 | 0.00 | 20 | 1001.6 |
| 20260508221549 | 70 | 301 | 10.0 | 21.0 | 0.00 | 0.00 | 0.00 | 21 | 1001.6 |
| 20260508221029 | 70 | 284 | 6.0 | 21.0 | 0.00 | 0.00 | 0.00 | 21 | 1001.5 |
| 20260508220529 | 70 | 323 | 7.0 | 16.0 | 0.00 | 0.00 | 0.00 | 20 | 1001.5 |
| 20260508220044 | 70 | 347 | 7.0 | 17.0 | 0.00 | 0.00 | 0.00 | 20 | 1001.5 |
| 20260508215525 | 70 | 311 | 7.0 | 20.0 | 0.00 | 0.00 | 0.00 | 21 | 1001.5 |
| 20260508215028 | 70 | 337 | 10.0 | 20.0 | 0.00 | 0.00 | 0.00 | 21 | 1001.6 |